TimeMST,TemperatureF,Dew PointF,Humidity,Sea Level PressureIn,VisibilityMPH,Wind Direction,Wind SpeedMPH,Gust SpeedMPH,PrecipitationIn,Events,Conditions,WindDirDegrees,DateUTC
12:56 AM,37.0,28.9,73,30.17,10.0,NE,3.5,-,N/A,,Clear,50,2012-11-19 07:56:00
1:56 AM,32.0,26.1,79,30.20,10.0,Calm,Calm,-,N/A,,Clear,0,2012-11-19 08:56:00
2:56 AM,32.0,26.1,79,30.21,10.0,Calm,Calm,-,N/A,,Clear,0,2012-11-19 09:56:00
3:56 AM,34.0,28.0,79,30.20,10.0,Calm,Calm,-,N/A,,Clear,0,2012-11-19 10:56:00
4:56 AM,30.2,26.6,86,30.27,10.0,SE,4.6,-,N/A,,Clear,130,2012-11-19 11:56:00
5:56 AM,32.0,27.0,82,30.27,10.0,ESE,4.6,-,N/A,,Clear,120,2012-11-19 12:56:00
6:56 AM,30.0,26.1,85,30.31,10.0,SSE,4.6,-,N/A,,Clear,150,2012-11-19 13:56:00
7:56 AM,33.1,27.0,78,30.32,10.0,SE,5.8,-,N/A,,Clear,130,2012-11-19 14:56:00
8:56 AM,39.0,28.9,67,30.34,10.0,East,8.1,-,N/A,,Clear,100,2012-11-19 15:56:00
9:56 AM,46.0,30.0,54,30.32,10.0,ESE,8.1,-,N/A,,Clear,110,2012-11-19 16:56:00
10:56 AM,51.8,30.2,44,30.36,10.0,ESE,4.6,-,N/A,,Clear,120,2012-11-19 17:56:00
11:56 AM,55.9,32.0,40,30.28,10.0,SSE,4.6,-,N/A,,Clear,150,2012-11-19 18:56:00
12:56 PM,59.0,32.0,36,30.25,10.0,Variable,3.5,-,N/A,,Clear,0,2012-11-19 19:56:00
1:56 PM,61.0,27.0,27,30.23,10.0,South,3.5,-,N/A,,Clear,180,2012-11-19 20:56:00
2:56 PM,62.1,24.1,23,30.22,10.0,Variable,4.6,-,N/A,,Clear,0,2012-11-19 21:56:00
3:56 PM,63.0,21.0,20,30.20,10.0,East,6.9,-,N/A,,Clear,100,2012-11-19 22:56:00
4:56 PM,60.1,17.1,19,30.22,10.0,ESE,8.1,-,N/A,,Clear,110,2012-11-19 23:56:00
5:56 PM,55.9,21.0,26,30.24,10.0,East,4.6,-,N/A,,Clear,80,2012-11-20 00:56:00
6:56 PM,48.0,19.9,33,30.29,10.0,SSE,3.5,-,N/A,,Clear,150,2012-11-20 01:56:00
7:56 PM,41.0,19.0,41,30.32,10.0,South,3.5,-,N/A,,Clear,190,2012-11-20 02:56:00
8:56 PM,37.9,19.0,47,30.32,10.0,Calm,Calm,-,N/A,,Clear,0,2012-11-20 03:56:00
9:56 PM,42.1,23.0,47,30.30,10.0,South,9.2,-,N/A,,Clear,170,2012-11-20 04:56:00
10:56 PM,37.0,21.9,54,30.31,10.0,Calm,Calm,-,N/A,,Clear,0,2012-11-20 05:56:00
11:56 PM,32.0,19.9,61,30.31,10.0,South,5.8,-,N/A,,Clear,180,2012-11-20 06:56:00